createdAt,value
2023-02-27T00:00:22.841Z,99024.78
2023-02-27T00:03:09.738Z,99019.59
2023-02-27T00:05:36.925Z,99018.75
2023-02-27T00:08:03.853Z,99022.19
2023-02-27T00:10:30.959Z,99017.91
2023-02-27T00:12:57.922Z,99023.06
2023-02-27T00:15:25.133Z,99022.19
2023-02-27T00:17:52.055Z,99016.16
2023-02-27T00:20:19.827Z,99023.94
2023-02-27T00:22:46.847Z,99021.34
2023-02-27T00:25:14.672Z,99017.91
2023-02-27T00:27:41.695Z,99019.59
2023-02-27T00:30:11.964Z,99017.03
2023-02-27T00:32:39.103Z,99017.88
2023-02-27T00:35:08.405Z,99023.94
2023-02-27T00:37:35.196Z,99025.63
2023-02-27T00:40:05.195Z,99015.28
2023-02-27T00:42:32.528Z,99026.50
2023-02-27T00:44:59.823Z,99017.88
2023-02-27T00:47:26.805Z,99027.38
2023-02-27T00:49:54.273Z,99022.19
2023-02-27T00:52:21.584Z,99027.38
2023-02-27T00:54:48.780Z,99029.09
2023-02-27T00:57:15.765Z,99032.53
2023-02-27T00:59:43.826Z,99029.09
2023-02-27T01:02:11.173Z,99026.50
2023-02-27T01:04:38.513Z,99033.41
2023-02-27T01:07:05.392Z,99028.22
2023-02-27T01:09:32.641Z,99026.50
2023-02-27T01:11:59.599Z,99036.00
2023-02-27T01:14:27.325Z,99036.88
2023-02-27T01:16:54.237Z,99039.44
2023-02-27T01:19:21.460Z,99040.31
2023-02-27T01:21:48.349Z,99054.13
2023-02-27T01:24:15.601Z,99047.22
2023-02-27T01:26:42.512Z,99054.09
2023-02-27T01:29:10.130Z,99054.13
2023-02-27T01:31:37.122Z,99061.88
2023-02-27T01:34:04.314Z,99068.81
2023-02-27T01:36:31.190Z,99061.91
2023-02-27T01:38:58.391Z,99073.09
2023-02-27T01:41:25.576Z,99067.06
2023-02-27T01:44:13.621Z,99068.78
2023-02-27T01:46:41.396Z,99076.56
2023-02-27T01:49:17.553Z,99073.09
2023-02-27T01:52:07.171Z,99072.22
2023-02-27T01:54:39.037Z,99067.03
2023-02-27T01:57:06.983Z,99073.06
2023-02-27T01:59:40.518Z,99073.09
2023-02-27T02:02:17.074Z,99077.41
2023-02-27T02:04:44.555Z,99078.25
2023-02-27T02:07:15.709Z,99078.25
2023-02-27T02:09:50.876Z,99083.44
2023-02-27T02:12:20.175Z,99085.19
2023-02-27T02:14:47.376Z,99086.91
2023-02-27T02:17:23.334Z,99089.47
2023-02-27T02:20:15.190Z,99092.94
2023-02-27T02:23:09.809Z,99090.31
2023-02-27T02:26:14.666Z,99092.03
2023-02-27T02:29:06.787Z,99089.47
2023-02-27T02:32:15.665Z,99094.63
2023-02-27T02:35:04.000Z,99089.44
2023-02-27T02:38:15.074Z,99097.22
2023-02-27T02:41:14.555Z,99098.06
2023-02-27T02:43:57.477Z,99101.53
2023-02-27T02:46:37.169Z,99102.41
2023-02-27T02:49:26.365Z,99097.22
2023-02-27T02:52:11.323Z,99103.22
2023-02-27T02:54:48.241Z,99111.00
2023-02-27T02:57:27.076Z,99112.72
2023-02-27T03:00:02.071Z,99121.34
2023-02-27T03:02:35.040Z,99119.63
2023-02-27T03:05:08.520Z,99116.16
2023-02-27T03:07:44.603Z,99129.97
2023-02-27T03:10:43.710Z,99127.38
2023-02-27T03:13:22.596Z,99129.09
2023-02-27T03:16:07.235Z,99132.56
2023-02-27T03:19:03.541Z,99140.25
2023-02-27T03:21:41.271Z,99145.47
2023-02-27T03:24:12.425Z,99148.91
2023-02-27T03:26:43.880Z,99151.47
2023-02-27T03:29:20.250Z,99148.00
2023-02-27T03:31:59.877Z,99157.50
2023-02-27T03:34:34.001Z,99161.84
2023-02-27T03:37:20.474Z,99165.25
2023-02-27T03:39:55.377Z,99169.59
2023-02-27T03:42:35.643Z,99164.41
2023-02-27T03:45:05.542Z,99164.41
2023-02-27T03:47:34.261Z,99166.97
2023-02-27T03:50:01.221Z,99173.88
2023-02-27T03:52:30.238Z,99172.13
2023-02-27T03:55:00.281Z,99170.44
2023-02-27T03:57:28.141Z,99179.91
2023-02-27T03:59:55.171Z,99175.56
2023-02-27T04:02:23.017Z,99181.63
2023-02-27T04:04:49.908Z,99184.22
2023-02-27T04:07:34.740Z,99176.47
2023-02-27T04:10:23.437Z,99183.38
2023-02-27T04:12:53.600Z,99183.34
2023-02-27T04:15:39.107Z,99178.19
2023-02-27T04:18:29.396Z,99180.75
2023-02-27T04:21:17.971Z,99183.31
2023-02-27T04:24:16.739Z,99190.25
2023-02-27T04:26:57.216Z,99194.53
2023-02-27T04:29:56.148Z,99190.22
2023-02-27T04:32:50.075Z,99196.25
2023-02-27T04:35:43.043Z,99198.84
2023-02-27T04:38:16.858Z,99204.00
2023-02-27T04:41:07.786Z,99214.38
2023-02-27T04:43:36.977Z,99208.31
2023-02-27T04:46:08.235Z,99206.59
2023-02-27T04:49:01.150Z,99210.91
2023-02-27T04:51:44.914Z,99215.19
2023-02-27T04:54:18.140Z,99208.31
2023-02-27T04:56:50.125Z,99216.06
2023-02-27T04:59:23.103Z,99216.06
2023-02-27T05:01:58.913Z,99220.41
2023-02-27T05:04:29.960Z,99216.97
2023-02-27T05:07:01.397Z,99221.28
2023-02-27T05:09:45.211Z,99221.28
2023-02-27T05:12:26.961Z,99222.13
2023-02-27T05:15:06.162Z,99224.72
2023-02-27T05:17:52.802Z,99228.16
2023-02-27T05:20:20.161Z,99223.84
2023-02-27T05:22:56.985Z,99229.00
2023-02-27T05:25:46.897Z,99233.31
2023-02-27T05:28:19.373Z,99234.16
2023-02-27T05:30:57.353Z,99245.41
2023-02-27T05:33:30.725Z,99236.78
2023-02-27T05:36:03.711Z,99238.53
2023-02-27T05:38:39.988Z,99244.56
2023-02-27T05:41:12.174Z,99245.44
2023-02-27T05:43:46.528Z,99244.56
2023-02-27T05:46:23.413Z,99244.56
2023-02-27T05:48:57.085Z,99247.19
2023-02-27T05:51:28.986Z,99246.31
2023-02-27T05:54:42.167Z,99248.00
2023-02-27T05:57:14.804Z,99244.56
2023-02-27T05:59:49.926Z,99254.94
2023-02-27T06:02:17.469Z,99254.06
2023-02-27T06:04:44.715Z,99263.56
2023-02-27T06:07:14.869Z,99258.41
2023-02-27T06:09:43.680Z,99263.59
2023-02-27T06:12:10.621Z,99261.91
2023-02-27T06:14:37.784Z,99264.50
2023-02-27T06:17:08.322Z,99264.47
2023-02-27T06:19:35.805Z,99265.34
2023-02-27T06:22:02.730Z,99267.94
2023-02-27T06:24:30.082Z,99274.00
2023-02-27T06:26:56.951Z,99273.16
2023-02-27T06:29:24.191Z,99268.88
2023-02-27T06:31:51.075Z,99282.66
2023-02-27T06:34:18.310Z,99285.31
2023-02-27T06:36:45.425Z,99290.47
2023-02-27T06:39:12.624Z,99287.03
2023-02-27T06:41:39.509Z,99288.78
2023-02-27T06:44:06.786Z,99292.25
2023-02-27T06:46:33.688Z,99292.19
2023-02-27T06:49:00.889Z,99302.56
2023-02-27T06:51:27.819Z,99304.31
2023-02-27T06:53:55.023Z,99306.94
2023-02-27T06:56:21.887Z,99309.53
2023-02-27T06:58:49.265Z,99309.56
2023-02-27T07:01:16.389Z,99318.22
2023-02-27T07:03:43.622Z,99309.59
2023-02-27T07:06:12.408Z,99316.53
2023-02-27T07:09:01.687Z,99319.13
2023-02-27T07:11:26.281Z,99317.41
2023-02-27T07:13:53.494Z,99326.88
2023-02-27T07:16:20.421Z,99331.22
2023-02-27T07:18:47.707Z,99326.09
2023-02-27T07:21:15.676Z,99326.09
2023-02-27T07:23:43.124Z,99331.31
2023-02-27T07:26:10.288Z,99323.53
2023-02-27T07:28:37.493Z,99331.34
2023-02-27T07:31:04.533Z,99324.44
2023-02-27T07:33:32.885Z,99324.47
2023-02-27T07:36:00.458Z,99329.63
2023-02-27T07:38:28.976Z,99337.44
2023-02-27T07:40:55.901Z,99348.66
2023-02-27T07:43:23.070Z,99339.19
2023-02-27T07:45:51.242Z,99345.22
2023-02-27T07:48:19.159Z,99340.94
2023-02-27T07:50:46.054Z,99337.50
2023-02-27T07:53:13.570Z,99345.28
2023-02-27T07:55:40.548Z,99342.72
2023-02-27T07:58:07.825Z,99347.91
2023-02-27T08:00:34.687Z,99354.84
2023-02-27T08:03:01.994Z,99341.03
2023-02-27T08:05:29.072Z,99352.28
2023-02-27T08:07:56.374Z,99361.81
2023-02-27T08:10:23.313Z,99363.59
2023-02-27T08:12:50.741Z,99361.84
2023-02-27T08:15:17.681Z,99362.75
2023-02-27T08:17:45.899Z,99367.97
2023-02-27T08:20:14.247Z,99371.44
2023-02-27T08:22:42.614Z,99366.25
2023-02-27T08:25:11.430Z,99376.66
2023-02-27T08:27:38.715Z,99380.06
2023-02-27T08:30:07.783Z,99388.72
2023-02-27T08:32:35.719Z,99384.41
2023-02-27T08:35:03.162Z,99383.56
2023-02-27T08:37:30.411Z,99387.03
2023-02-27T08:39:57.495Z,99393.94
2023-02-27T08:42:26.838Z,99393.94
2023-02-27T08:44:53.906Z,99394.81
2023-02-27T08:47:21.204Z,99394.81
2023-02-27T08:49:48.066Z,99406.97
2023-02-27T08:52:15.780Z,99405.22
2023-02-27T08:54:42.656Z,99410.41
2023-02-27T08:57:09.959Z,99413.00
2023-02-27T08:59:36.875Z,99410.41
2023-02-27T09:02:04.286Z,99416.50
2023-02-27T09:04:31.205Z,99419.09
2023-02-27T09:06:58.490Z,99418.22
2023-02-27T09:09:25.479Z,99428.63
2023-02-27T09:11:52.776Z,99427.78
2023-02-27T09:14:20.241Z,99426.03
2023-02-27T09:16:47.586Z,99420.84
2023-02-27T09:19:15.838Z,99433.84
2023-02-27T09:21:43.154Z,99434.69
2023-02-27T09:24:19.627Z,99432.97
2023-02-27T09:26:49.350Z,99431.25
2023-02-27T09:29:16.567Z,99431.25
2023-02-27T09:31:44.148Z,99434.69
2023-02-27T09:34:11.129Z,99443.34
2023-02-27T09:36:38.591Z,99445.06
2023-02-27T09:39:05.737Z,99442.47
2023-02-27T09:41:51.733Z,99445.06
2023-02-27T09:44:44.924Z,99444.22
2023-02-27T09:47:21.293Z,99447.66
2023-02-27T09:49:55.956Z,99450.25
2023-02-27T09:52:23.292Z,99448.53
2023-02-27T09:54:50.465Z,99456.34
2023-02-27T09:57:38.382Z,99453.69
2023-02-27T10:00:12.861Z,99449.34
2023-02-27T10:02:51.301Z,99457.16
2023-02-27T10:05:24.791Z,99458.00
2023-02-27T10:08:17.399Z,99461.44
2023-02-27T10:11:02.303Z,99461.34
2023-02-27T10:13:51.133Z,99463.00
2023-02-27T10:16:20.785Z,99463.84
2023-02-27T10:18:58.042Z,99466.38
2023-02-27T10:21:38.684Z,99473.31
2023-02-27T10:24:11.066Z,99476.75
2023-02-27T10:26:42.411Z,99477.59
2023-02-27T10:29:20.924Z,99478.44
2023-02-27T10:31:53.724Z,99470.59
2023-02-27T10:34:23.354Z,99474.00
2023-02-27T10:36:50.331Z,99475.66
2023-02-27T10:39:20.984Z,99476.50
2023-02-27T10:41:49.640Z,99469.50
2023-02-27T10:44:20.748Z,99461.69
2023-02-27T10:46:50.610Z,99466.06
2023-02-27T10:49:21.411Z,99468.69
2023-02-27T10:52:12.124Z,99478.25
2023-02-27T10:54:40.623Z,99467.88
2023-02-27T10:57:30.989Z,99473.97
2023-02-27T11:00:01.785Z,99476.53
2023-02-27T11:02:38.293Z,99474.78
2023-02-27T11:05:07.921Z,99479.97
2023-02-27T11:07:37.860Z,99471.31
2023-02-27T11:10:11.848Z,99478.31
2023-02-27T11:12:41.316Z,99473.16
2023-02-27T11:15:11.431Z,99477.50
2023-02-27T11:17:38.297Z,99473.19
2023-02-27T11:20:25.789Z,99479.31
2023-02-27T11:23:06.524Z,99474.19
2023-02-27T11:25:34.223Z,99472.50
2023-02-27T11:28:13.076Z,99477.69
2023-02-27T11:30:42.327Z,99476.00
2023-02-27T11:33:19.389Z,99474.25
2023-02-27T11:35:56.931Z,99466.41
2023-02-27T11:38:30.491Z,99471.53
2023-02-27T11:41:03.684Z,99486.25
2023-02-27T11:43:37.030Z,99476.69
2023-02-27T11:46:27.579Z,99479.34
2023-02-27T11:48:57.547Z,99475.88
2023-02-27T11:51:49.523Z,99474.16
2023-02-27T11:54:55.634Z,99481.13
2023-02-27T11:57:35.409Z,99479.47
2023-02-27T12:00:06.615Z,99475.97
2023-02-27T12:02:53.037Z,99479.44
2023-02-27T12:06:00.927Z,99486.38
2023-02-27T12:08:50.619Z,99476.00
2023-02-27T12:11:38.305Z,99479.50
2023-02-27T12:14:27.499Z,99479.47
2023-02-27T12:16:58.098Z,99480.38
2023-02-27T12:19:44.112Z,99485.56
2023-02-27T12:22:26.877Z,99489.88
2023-02-27T12:25:02.649Z,99491.66
2023-02-27T12:27:46.833Z,99488.22
2023-02-27T12:30:31.968Z,99486.47
2023-02-27T12:33:39.089Z,99493.41
2023-02-27T12:36:11.876Z,99490.81
2023-02-27T12:38:39.247Z,99494.25
2023-02-27T12:41:12.221Z,99498.59
2023-02-27T12:43:55.582Z,99506.44
2023-02-27T12:46:50.217Z,99504.75
2023-02-27T12:49:51.874Z,99510.81
2023-02-27T12:52:56.597Z,99503.00
2023-02-27T12:55:33.439Z,99511.69
2023-02-27T12:58:30.194Z,99510.81
2023-02-27T13:01:05.024Z,99515.16
2023-02-27T13:03:48.911Z,99505.59
2023-02-27T13:06:50.268Z,99513.47
2023-02-27T13:09:42.151Z,99515.22
2023-02-27T13:12:39.555Z,99508.28
2023-02-27T13:15:19.778Z,99519.53
2023-02-27T13:17:49.626Z,99523.88
2023-02-27T13:20:58.238Z,99525.63
2023-02-27T13:23:35.331Z,99530.00
2023-02-27T13:26:20.916Z,99530.84
2023-02-27T13:28:49.006Z,99532.56
2023-02-27T13:31:40.683Z,99536.03
2023-02-27T13:34:16.991Z,99529.09
2023-02-27T13:36:49.137Z,99527.34
2023-02-27T13:39:45.107Z,99524.69
2023-02-27T13:42:27.729Z,99525.56
2023-02-27T13:44:58.602Z,99531.63
2023-02-27T13:47:39.811Z,99536.00
2023-02-27T13:50:18.906Z,99536.03
2023-02-27T13:52:47.023Z,99540.38
2023-02-27T13:55:35.339Z,99528.22
2023-02-27T13:58:04.877Z,99533.44
2023-02-27T14:00:32.764Z,99534.31
2023-02-27T14:03:20.597Z,99531.69
2023-02-27T14:05:51.788Z,99535.16
2023-02-27T14:08:25.715Z,99552.50
2023-02-27T14:11:20.301Z,99542.13
2023-02-27T14:13:50.626Z,99536.91
2023-02-27T14:16:39.239Z,99549.94
2023-02-27T14:19:15.604Z,99549.03
2023-02-27T14:21:51.509Z,99544.72
2023-02-27T14:24:22.452Z,99548.19
2023-02-27T14:26:50.537Z,99542.09
2023-02-27T14:29:21.185Z,99543.84
2023-02-27T14:31:49.212Z,99546.44
2023-02-27T14:34:20.459Z,99549.03
2023-02-27T14:36:52.015Z,99551.59
2023-02-27T14:39:21.889Z,99556.78
2023-02-27T14:41:54.724Z,99555.97
2023-02-27T14:44:25.295Z,99559.41
2023-02-27T14:46:55.243Z,99567.22
2023-02-27T14:49:29.277Z,99573.25
2023-02-27T14:51:57.409Z,99568.94
2023-02-27T14:54:28.174Z,99568.94
2023-02-27T14:56:57.633Z,99574.13
2023-02-27T14:59:28.371Z,99580.19
2023-02-27T15:01:57.196Z,99586.28
2023-02-27T15:04:27.019Z,99580.22
2023-02-27T15:06:56.465Z,99581.97
2023-02-27T15:09:43.467Z,99588.06
2023-02-27T15:12:18.371Z,99589.78
2023-02-27T15:15:01.524Z,99594.97
2023-02-27T15:17:43.857Z,99590.66
2023-02-27T15:20:30.229Z,99596.72
2023-02-27T15:22:58.715Z,99594.97
2023-02-27T15:25:33.743Z,99600.16
2023-02-27T15:28:17.959Z,99592.34
2023-02-27T15:30:49.522Z,99596.63
2023-02-27T15:33:17.415Z,99609.59
2023-02-27T15:35:46.181Z,99613.03
2023-02-27T15:38:35.411Z,99608.66
2023-02-27T15:41:04.147Z,99612.94
2023-02-27T15:43:31.481Z,99610.31
2023-02-27T15:45:59.364Z,99617.22
2023-02-27T15:48:26.767Z,99620.69
2023-02-27T15:51:03.792Z,99631.03
2023-02-27T15:53:34.185Z,99632.75
2023-02-27T15:56:06.709Z,99634.47
2023-02-27T15:58:38.976Z,99641.38
2023-02-27T16:01:21.120Z,99643.06
2023-02-27T16:03:53.949Z,99655.16
2023-02-27T16:06:39.123Z,99655.13
2023-02-27T16:09:19.670Z,99650.78
2023-02-27T16:11:46.975Z,99666.31
2023-02-27T16:14:42.168Z,99658.50
2023-02-27T16:17:24.372Z,99668.88
2023-02-27T16:19:51.419Z,99674.91
2023-02-27T16:22:20.834Z,99676.63
2023-02-27T16:24:48.497Z,99677.47
2023-02-27T16:27:27.570Z,99689.56
2023-02-27T16:29:57.510Z,99691.25
2023-02-27T16:32:30.539Z,99688.63
2023-02-27T16:35:06.640Z,99694.69
2023-02-27T16:37:38.489Z,99703.31
2023-02-27T16:40:25.168Z,99704.16
2023-02-27T16:42:52.736Z,99700.69
2023-02-27T16:45:22.913Z,99712.75
2023-02-27T16:47:52.825Z,99710.19
2023-02-27T16:50:30.610Z,99722.28
2023-02-27T16:52:57.894Z,99724.84
2023-02-27T16:55:26.077Z,99727.41
2023-02-27T16:57:53.714Z,99726.53
2023-02-27T17:00:22.767Z,99724.81
2023-02-27T17:02:50.345Z,99734.28
2023-02-27T17:05:18.435Z,99737.72
2023-02-27T17:07:46.413Z,99753.28
2023-02-27T17:10:19.468Z,99751.56
2023-02-27T17:12:48.019Z,99751.53
2023-02-27T17:15:15.925Z,99750.66
2023-02-27T17:17:43.720Z,99741.97
2023-02-27T17:20:12.741Z,99753.25
2023-02-27T17:22:42.272Z,99759.25
2023-02-27T17:25:10.594Z,99760.97
2023-02-27T17:27:38.243Z,99762.69
2023-02-27T17:30:06.869Z,99755.75
2023-02-27T17:32:35.037Z,99768.69
2023-02-27T17:35:02.758Z,99769.56
2023-02-27T17:37:30.135Z,99766.09
2023-02-27T17:39:57.093Z,99771.28
2023-02-27T17:42:25.885Z,99773.00
2023-02-27T17:44:52.958Z,99773.88
2023-02-27T17:47:20.339Z,99778.19
2023-02-27T17:49:47.594Z,99774.72
2023-02-27T17:52:15.546Z,99770.44
2023-02-27T17:54:42.463Z,99787.69
2023-02-27T17:57:11.483Z,99788.56
2023-02-27T17:59:38.441Z,99785.94
2023-02-27T18:02:06.422Z,99786.78
2023-02-27T18:04:33.305Z,99784.22
2023-02-27T18:07:00.523Z,99791.06
2023-02-27T18:09:27.485Z,99794.53
2023-02-27T18:11:54.786Z,99801.44
2023-02-27T18:14:23.087Z,99810.03
2023-02-27T18:16:50.556Z,99810.91
2023-02-27T18:19:18.384Z,99815.19
2023-02-27T18:21:47.304Z,99813.50
2023-02-27T18:24:17.577Z,99816.94
2023-02-27T18:26:45.458Z,99810.91
2023-02-27T18:29:14.123Z,99810.00
2023-02-27T18:31:44.497Z,99821.19
2023-02-27T18:34:12.404Z,99822.88
2023-02-27T18:36:39.728Z,99817.63
2023-02-27T18:39:07.018Z,99827.97
2023-02-27T18:41:34.775Z,99830.50
2023-02-27T18:44:02.269Z,99835.63
2023-02-27T18:46:29.588Z,99842.50
2023-02-27T18:48:57.199Z,99837.25
2023-02-27T18:51:24.392Z,99849.22
2023-02-27T18:53:52.122Z,99850.78
2023-02-27T18:56:24.967Z,99843.78
2023-02-27T18:58:53.224Z,99848.84
2023-02-27T19:01:31.242Z,99850.47
2023-02-27T19:04:03.627Z,99852.94
2023-02-27T19:06:41.095Z,99858.94
2023-02-27T19:09:11.230Z,99858.91
2023-02-27T19:11:39.929Z,99866.66
2023-02-27T19:14:10.764Z,99857.13
2023-02-27T19:16:38.012Z,99868.34
2023-02-27T19:19:06.108Z,99867.41
2023-02-27T19:21:34.017Z,99866.56
2023-02-27T19:24:01.513Z,99863.91
2023-02-27T19:26:29.548Z,99866.47
2023-02-27T19:28:57.120Z,99871.63
2023-02-27T19:31:24.649Z,99876.72
2023-02-27T19:33:52.374Z,99878.31
2023-02-27T19:36:21.199Z,99887.75
2023-02-27T19:38:49.454Z,99883.41
2023-02-27T19:41:17.891Z,99885.97
2023-02-27T19:43:46.329Z,99890.25
2023-02-27T19:46:16.808Z,99890.13
2023-02-27T19:48:45.286Z,99889.19
2023-02-27T19:51:14.204Z,99890.91
2023-02-27T19:53:42.963Z,99890.88
2023-02-27T19:56:13.356Z,99888.19
2023-02-27T19:58:41.115Z,99882.16
2023-02-27T20:01:08.464Z,99902.00
2023-02-27T20:03:37.138Z,99886.47
2023-02-27T20:06:09.255Z,99896.78
2023-02-27T20:08:36.525Z,99901.06
2023-02-27T20:11:04.821Z,99902.78
2023-02-27T20:13:32.084Z,99900.97
2023-02-27T20:16:04.656Z,99909.56
2023-02-27T20:18:33.069Z,99908.72
2023-02-27T20:21:11.060Z,99903.41
2023-02-27T20:23:40.310Z,99912.03
2023-02-27T20:26:14.612Z,99909.28
2023-02-27T20:28:42.195Z,99903.97
2023-02-27T20:31:12.666Z,99899.66
2023-02-27T20:33:40.956Z,99900.53
2023-02-27T20:36:10.054Z,99906.53
2023-02-27T20:38:39.245Z,99902.97
2023-02-27T20:41:10.363Z,99905.53
2023-02-27T20:43:38.637Z,99907.22
2023-02-27T20:46:07.303Z,99908.03
2023-02-27T20:48:35.226Z,99907.94
2023-02-27T20:51:22.963Z,99914.75
2023-02-27T20:53:52.870Z,99919.00
2023-02-27T20:56:22.503Z,99915.47
2023-02-27T20:58:49.774Z,99916.22
2023-02-27T21:01:17.532Z,99907.50
2023-02-27T21:03:46.558Z,99916.94
2023-02-27T21:06:16.013Z,99922.09
2023-02-27T21:08:46.134Z,99915.19
2023-02-27T21:11:19.440Z,99922.97
2023-02-27T21:13:47.349Z,99918.53
2023-02-27T21:16:16.593Z,99921.09
2023-02-27T21:18:44.876Z,99926.16
2023-02-27T21:21:15.897Z,99925.25
2023-02-27T21:23:43.608Z,99923.44
2023-02-27T21:26:24.273Z,99928.50
2023-02-27T21:29:07.013Z,99917.09
2023-02-27T21:31:35.235Z,99929.84
2023-02-27T21:34:05.531Z,99926.25
2023-02-27T21:36:34.782Z,99933.78
2023-02-27T21:39:11.449Z,99931.91
2023-02-27T21:41:38.825Z,99938.63
2023-02-27T21:44:08.076Z,99945.38
2023-02-27T21:46:35.934Z,99943.53
2023-02-27T21:49:04.022Z,99933.03
2023-02-27T21:51:40.058Z,99938.03
2023-02-27T21:54:11.232Z,99934.53
2023-02-27T21:56:38.972Z,99935.41
2023-02-27T21:59:06.419Z,99937.81
2023-02-27T22:01:33.866Z,99942.84
2023-02-27T22:04:01.973Z,99941.06
2023-02-27T22:06:34.237Z,99941.81
2023-02-27T22:09:05.064Z,99944.25
2023-02-27T22:11:34.289Z,99939.00
2023-02-27T22:14:02.496Z,99942.34
2023-02-27T22:16:29.488Z,99945.69
2023-02-27T22:18:56.776Z,99943.03
2023-02-27T22:21:27.110Z,99943.00
2023-02-27T22:23:57.992Z,99939.56
2023-02-27T22:26:28.317Z,99943.72
2023-02-27T22:28:57.327Z,99944.50
2023-02-27T22:31:29.887Z,99951.34
2023-02-27T22:34:01.705Z,99952.88
2023-02-27T22:36:30.475Z,99954.41
2023-02-27T22:38:57.989Z,99952.66
2023-02-27T22:41:28.864Z,99957.03
2023-02-27T22:43:59.917Z,99961.41
2023-02-27T22:46:29.717Z,99965.75
2023-02-27T22:48:59.005Z,99962.31
2023-02-27T22:51:28.703Z,99964.81
2023-02-27T22:53:58.585Z,99959.53
2023-02-27T22:56:25.976Z,99965.28
2023-02-27T22:58:53.429Z,99969.34
2023-02-27T23:01:26.494Z,99964.91
2023-02-27T23:03:56.187Z,99970.84
2023-02-27T23:06:26.133Z,99968.06
2023-02-27T23:08:53.452Z,99972.28
2023-02-27T23:11:20.860Z,99971.38
2023-02-27T23:13:49.542Z,99961.00
2023-02-27T23:16:17.618Z,99966.88
2023-02-27T23:18:51.529Z,99971.22
2023-02-27T23:21:20.498Z,99968.66
2023-02-27T23:23:47.921Z,99967.78
2023-02-27T23:26:15.297Z,99964.28
2023-02-27T23:28:42.857Z,99957.28
2023-02-27T23:31:10.106Z,99953.75
2023-02-27T23:33:37.436Z,99955.31
2023-02-27T23:36:04.711Z,99956.16
2023-02-27T23:38:32.166Z,99963.03
2023-02-27T23:41:07.940Z,99960.53
2023-02-27T23:43:54.835Z,99963.19
2023-02-27T23:46:21.810Z,99958.81
2023-02-27T23:48:49.253Z,99961.31
2023-02-27T23:51:16.614Z,99964.69
2023-02-27T23:53:44.650Z,99971.59
2023-02-27T23:56:18.810Z,99970.69
2023-02-27T23:58:46.952Z,99977.41
